AZU2884 SBKP-SBRJ
Flight info
| Callsign | AZU2884 |
|---|---|
| Flight time | 0h 44m |
| Altitude | 29000 |
| Route | NIBRU UZ171 KEVUN |
| Aircraft | E195/M-SDE3GILORVW/S |
Departure
| Time | 2026-05-06 19:46 |
|---|---|
| Airport | Viracopos International Airport (SBKP) |
Arrival
| Time | 2026-05-06 20:30 |
|---|---|
| Airport | Santos Dumont Airport (SBRJ) |
| Time | Latitude | Longitude | Altitude | Speed | Heading |
|---|---|---|---|---|---|
| 2026-05-06 19:27 | -23.00327 | -47.14961 | 2156 ft | 0 kts | 218° |
| 2026-05-06 19:37 | -23.00315 | -47.14950 | 2156 ft | 4 kts | 238° |
| 2026-05-06 19:37 | -23.00308 | -47.14924 | 2152 ft | 4 kts | 280° |
| 2026-05-06 19:38 | -23.00317 | -47.14897 | 2154 ft | 4 kts | 302° |
| 2026-05-06 19:38 | -23.00325 | -47.14883 | 2156 ft | 0 kts | 308° |
| 2026-05-06 19:41 | -23.00325 | -47.14884 | 2156 ft | 0 kts | 308° |
| 2026-05-06 19:42 | -23.00310 | -47.14904 | 2155 ft | 7 kts | 308° |
| 2026-05-06 19:42 | -23.00266 | -47.14965 | 2156 ft | 12 kts | 308° |
| 2026-05-06 19:42 | -23.00205 | -47.15014 | 2150 ft | 11 kts | 5° |
| 2026-05-06 19:42 | -23.00141 | -47.14970 | 2155 ft | 11 kts | 36° |
| 2026-05-06 19:43 | -23.00078 | -47.14919 | 2152 ft | 11 kts | 38° |
| 2026-05-06 19:43 | -23.00020 | -47.14860 | 2153 ft | 12 kts | 61° |
| 2026-05-06 19:43 | -22.99967 | -47.14797 | 2154 ft | 12 kts | 38° |
| 2026-05-06 19:43 | -22.99908 | -47.14739 | 2153 ft | 11 kts | 50° |
| 2026-05-06 19:44 | -22.99881 | -47.14664 | 2155 ft | 10 kts | 92° |
| 2026-05-06 19:44 | -22.99892 | -47.14631 | 2152 ft | 2 kts | 131° |
| 2026-05-06 19:44 | -22.99894 | -47.14628 | 2155 ft | 0 kts | 132° |
| 2026-05-06 19:45 | -22.99958 | -47.14546 | 2154 ft | 44 kts | 128° |
| 2026-05-06 19:45 | -23.00279 | -47.14094 | 2153 ft | 108 kts | 127° |
| 2026-05-06 19:45 | -23.00875 | -47.13276 | 2158 ft | 164 kts | 129° |
| 2026-05-06 19:45 | -23.01601 | -47.12248 | 2756 ft | 172 kts | 127° |
| 2026-05-06 19:46 | -23.02336 | -47.11138 | 3406 ft | 191 kts | 131° |
| 2026-05-06 19:46 | -23.03358 | -47.10200 | 3737 ft | 197 kts | 149° |
| 2026-05-06 19:46 | -23.04595 | -47.09475 | 4331 ft | 212 kts | 151° |
| 2026-05-06 19:46 | -23.05906 | -47.08630 | 4954 ft | 225 kts | 147° |
| 2026-05-06 19:47 | -23.07278 | -47.07661 | 5605 ft | 242 kts | 146° |
| 2026-05-06 19:47 | -23.08742 | -47.06620 | 6123 ft | 267 kts | 145° |
| 2026-05-06 19:47 | -23.10350 | -47.05462 | 6822 ft | 282 kts | 146° |
| 2026-05-06 19:47 | -23.12014 | -47.04271 | 7779 ft | 288 kts | 145° |
| 2026-05-06 19:48 | -23.13691 | -47.03064 | 8771 ft | 290 kts | 146° |
| 2026-05-06 19:48 | -23.15423 | -47.01910 | 9624 ft | 293 kts | 148° |
| 2026-05-06 19:48 | -23.17190 | -47.00777 | 10185 ft | 302 kts | 148° |
| 2026-05-06 19:48 | -23.19000 | -46.99600 | 10371 ft | 301 kts | 148° |
| 2026-05-06 19:49 | -23.20803 | -46.98414 | 11317 ft | 304 kts | 148° |
| 2026-05-06 19:49 | -23.22735 | -46.97320 | 11869 ft | 320 kts | 154° |
| 2026-05-06 19:49 | -23.24769 | -46.96318 | 12569 ft | 329 kts | 154° |
| 2026-05-06 19:49 | -23.26862 | -46.95260 | 13426 ft | 332 kts | 154° |
| 2026-05-06 19:50 | -23.28963 | -46.94170 | 14310 ft | 335 kts | 154° |
| 2026-05-06 19:50 | -23.31077 | -46.93070 | 15235 ft | 337 kts | 153° |
| 2026-05-06 19:50 | -23.33030 | -46.91649 | 16119 ft | 340 kts | 134° |
| 2026-05-06 19:50 | -23.34370 | -46.89557 | 16924 ft | 344 kts | 121° |
| 2026-05-06 19:51 | -23.35584 | -46.87283 | 17683 ft | 348 kts | 122° |
| 2026-05-06 19:51 | -23.36818 | -46.85024 | 18388 ft | 352 kts | 123° |
| 2026-05-06 19:51 | -23.38085 | -46.82704 | 19044 ft | 357 kts | 122° |
| 2026-05-06 19:51 | -23.39359 | -46.80356 | 19670 ft | 361 kts | 122° |
| 2026-05-06 19:52 | -23.40628 | -46.78008 | 20281 ft | 366 kts | 122° |
| 2026-05-06 19:52 | -23.41924 | -46.75601 | 20901 ft | 370 kts | 122° |
| 2026-05-06 19:52 | -23.43237 | -46.73155 | 21463 ft | 375 kts | 122° |
| 2026-05-06 19:52 | -23.44558 | -46.70682 | 22031 ft | 379 kts | 122° |
| 2026-05-06 19:53 | -23.45873 | -46.68220 | 22585 ft | 382 kts | 122° |
| 2026-05-06 19:53 | -23.47217 | -46.65691 | 23106 ft | 387 kts | 122° |
| 2026-05-06 19:53 | -23.48569 | -46.63141 | 23613 ft | 390 kts | 122° |
| 2026-05-06 19:53 | -23.49929 | -46.60564 | 24090 ft | 394 kts | 122° |
| 2026-05-06 19:54 | -23.51303 | -46.57958 | 24559 ft | 397 kts | 122° |
| 2026-05-06 19:54 | -23.52664 | -46.55367 | 25042 ft | 399 kts | 122° |
| 2026-05-06 19:54 | -23.54051 | -46.52729 | 25517 ft | 401 kts | 123° |
| 2026-05-06 19:54 | -23.55475 | -46.50089 | 25998 ft | 402 kts | 123° |
| 2026-05-06 19:55 | -23.56890 | -46.47485 | 26456 ft | 404 kts | 124° |
| 2026-05-06 19:55 | -23.58280 | -46.44781 | 26871 ft | 409 kts | 117° |
| 2026-05-06 19:55 | -23.59145 | -46.41827 | 27263 ft | 417 kts | 103° |
| 2026-05-06 19:55 | -23.59332 | -46.38624 | 27669 ft | 423 kts | 93° |
| 2026-05-06 19:56 | -23.59288 | -46.35398 | 28026 ft | 427 kts | 92° |
| 2026-05-06 19:56 | -23.59221 | -46.32172 | 28379 ft | 429 kts | 92° |
| 2026-05-06 19:56 | -23.59159 | -46.28904 | 28732 ft | 432 kts | 92° |
| 2026-05-06 19:56 | -23.59098 | -46.25647 | 29065 ft | 433 kts | 93° |
| 2026-05-06 19:57 | -23.59043 | -46.22352 | 29266 ft | 438 kts | 93° |
| 2026-05-06 19:57 | -23.58977 | -46.18994 | 29297 ft | 447 kts | 92° |
| 2026-05-06 19:57 | -23.58905 | -46.15563 | 29224 ft | 459 kts | 92° |
| 2026-05-06 19:57 | -23.58827 | -46.12030 | 29146 ft | 468 kts | 92° |
| 2026-05-06 19:58 | -23.58667 | -46.04862 | 29144 ft | 477 kts | 92° |
| 2026-05-06 19:58 | -23.58504 | -45.97610 | 29146 ft | 477 kts | 92° |
| 2026-05-06 19:59 | -23.58343 | -45.90400 | 29148 ft | 477 kts | 92° |
| 2026-05-06 19:59 | -23.58186 | -45.83186 | 29142 ft | 478 kts | 92° |
| 2026-05-06 20:00 | -23.58040 | -45.77146 | 29138 ft | 477 kts | 92° |
| 2026-05-06 20:00 | -23.57839 | -45.68714 | 29146 ft | 477 kts | 92° |
| 2026-05-06 20:01 | -23.57669 | -45.61496 | 29159 ft | 477 kts | 92° |
| 2026-05-06 20:01 | -23.57518 | -45.55470 | 29132 ft | 477 kts | 92° |
| 2026-05-06 20:02 | -23.57328 | -45.48221 | 29152 ft | 478 kts | 90° |
| 2026-05-06 20:02 | -23.56090 | -45.41062 | 29127 ft | 484 kts | 79° |
| 2026-05-06 20:03 | -23.54552 | -45.33953 | 29127 ft | 482 kts | 79° |
| 2026-05-06 20:03 | -23.53031 | -45.26805 | 29122 ft | 482 kts | 79° |
| 2026-05-06 20:04 | -23.51524 | -45.19683 | 29133 ft | 482 kts | 79° |
| 2026-05-06 20:04 | -23.50017 | -45.12586 | 29104 ft | 482 kts | 79° |
| 2026-05-06 20:05 | -23.48503 | -45.05463 | 28849 ft | 478 kts | 79° |
| 2026-05-06 20:05 | -23.47768 | -45.02020 | 28544 ft | 462 kts | 79° |
| 2026-05-06 20:05 | -23.47042 | -44.98624 | 27866 ft | 457 kts | 79° |
| 2026-05-06 20:06 | -23.46326 | -44.95270 | 27252 ft | 450 kts | 79° |
| 2026-05-06 20:06 | -23.45617 | -44.92003 | 26661 ft | 444 kts | 78° |
| 2026-05-06 20:06 | -23.44888 | -44.88746 | 26058 ft | 438 kts | 78° |
| 2026-05-06 20:06 | -23.44173 | -44.85538 | 25498 ft | 432 kts | 77° |
| 2026-05-06 20:07 | -23.43472 | -44.82403 | 24944 ft | 425 kts | 77° |
| 2026-05-06 20:07 | -23.42779 | -44.79290 | 24375 ft | 420 kts | 77° |
| 2026-05-06 20:07 | -23.42092 | -44.76206 | 23818 ft | 414 kts | 77° |
| 2026-05-06 20:07 | -23.41412 | -44.73166 | 23262 ft | 409 kts | 77° |
| 2026-05-06 20:08 | -23.40753 | -44.70210 | 22735 ft | 404 kts | 77° |
| 2026-05-06 20:08 | -23.40091 | -44.67248 | 22192 ft | 399 kts | 77° |
| 2026-05-06 20:08 | -23.39435 | -44.64317 | 21670 ft | 394 kts | 77° |
| 2026-05-06 20:08 | -23.38791 | -44.61437 | 21140 ft | 389 kts | 77° |
| 2026-05-06 20:09 | -23.38160 | -44.58626 | 20639 ft | 384 kts | 77° |
| 2026-05-06 20:09 | -23.37529 | -44.55811 | 20132 ft | 379 kts | 77° |
| 2026-05-06 20:09 | -23.36905 | -44.53030 | 19625 ft | 375 kts | 77° |
| 2026-05-06 20:09 | -23.36294 | -44.50307 | 19135 ft | 372 kts | 77° |
| 2026-05-06 20:10 | -23.35681 | -44.47580 | 18643 ft | 369 kts | 78° |
| 2026-05-06 20:10 | -23.35069 | -44.44859 | 18153 ft | 367 kts | 78° |
| 2026-05-06 20:10 | -23.34411 | -44.42212 | 17672 ft | 366 kts | 71° |
| 2026-05-06 20:10 | -23.33397 | -44.39661 | 17192 ft | 364 kts | 66° |
| 2026-05-06 20:11 | -23.32329 | -44.37194 | 16683 ft | 363 kts | 66° |
| 2026-05-06 20:11 | -23.31254 | -44.34715 | 16216 ft | 359 kts | 66° |
| 2026-05-06 20:11 | -23.30193 | -44.32259 | 15732 ft | 356 kts | 66° |
| 2026-05-06 20:11 | -23.29144 | -44.29827 | 15260 ft | 352 kts | 66° |
| 2026-05-06 20:12 | -23.28123 | -44.27453 | 14802 ft | 349 kts | 65° |
| 2026-05-06 20:12 | -23.27094 | -44.25062 | 14333 ft | 346 kts | 65° |
| 2026-05-06 20:12 | -23.26077 | -44.22698 | 13870 ft | 342 kts | 65° |
| 2026-05-06 20:12 | -23.25075 | -44.20368 | 13416 ft | 337 kts | 65° |
| 2026-05-06 20:13 | -23.24102 | -44.18109 | 12945 ft | 325 kts | 65° |
| 2026-05-06 20:13 | -23.23167 | -44.15937 | 12546 ft | 310 kts | 65° |
| 2026-05-06 20:13 | -23.22255 | -44.13818 | 12177 ft | 308 kts | 65° |
| 2026-05-06 20:13 | -23.21348 | -44.11713 | 11755 ft | 305 kts | 65° |
| 2026-05-06 20:14 | -23.20460 | -44.09650 | 11371 ft | 302 kts | 65° |
| 2026-05-06 20:14 | -23.19586 | -44.07623 | 11211 ft | 293 kts | 64° |
| 2026-05-06 20:14 | -23.18690 | -44.05655 | 11149 ft | 287 kts | 63° |
| 2026-05-06 20:14 | -23.17776 | -44.03697 | 11099 ft | 292 kts | 63° |
| 2026-05-06 20:15 | -23.16858 | -44.01711 | 11099 ft | 296 kts | 63° |
| 2026-05-06 20:15 | -23.15930 | -43.99705 | 10889 ft | 300 kts | 63° |
| 2026-05-06 20:15 | -23.15020 | -43.97676 | 10820 ft | 297 kts | 65° |
| 2026-05-06 20:15 | -23.14170 | -43.95651 | 10710 ft | 297 kts | 65° |
| 2026-05-06 20:16 | -23.13303 | -43.93596 | 10465 ft | 298 kts | 65° |
| 2026-05-06 20:16 | -23.12442 | -43.91581 | 10259 ft | 295 kts | 65° |
| 2026-05-06 20:16 | -23.11582 | -43.89563 | 10063 ft | 293 kts | 65° |
| 2026-05-06 20:16 | -23.10724 | -43.87551 | 9857 ft | 291 kts | 65° |
| 2026-05-06 20:17 | -23.09883 | -43.85579 | 9652 ft | 287 kts | 65° |
| 2026-05-06 20:17 | -23.09048 | -43.83628 | 9455 ft | 278 kts | 65° |
| 2026-05-06 20:17 | -23.08240 | -43.81745 | 9243 ft | 271 kts | 65° |
| 2026-05-06 20:17 | -23.07464 | -43.79930 | 9080 ft | 262 kts | 65° |
| 2026-05-06 20:18 | -23.06705 | -43.78164 | 8879 ft | 256 kts | 65° |
| 2026-05-06 20:18 | -23.05963 | -43.76433 | 8713 ft | 247 kts | 65° |
| 2026-05-06 20:18 | -23.05243 | -43.74756 | 8538 ft | 240 kts | 64° |
| 2026-05-06 20:18 | -23.04548 | -43.73147 | 8390 ft | 235 kts | 65° |
| 2026-05-06 20:19 | -23.03858 | -43.71535 | 8224 ft | 234 kts | 65° |
| 2026-05-06 20:19 | -23.03166 | -43.69921 | 8034 ft | 236 kts | 65° |
| 2026-05-06 20:19 | -23.02468 | -43.68306 | 7838 ft | 237 kts | 64° |
| 2026-05-06 20:19 | -23.01758 | -43.66692 | 7652 ft | 237 kts | 64° |
| 2026-05-06 20:20 | -23.01060 | -43.65094 | 7413 ft | 237 kts | 64° |
| 2026-05-06 20:20 | -23.00355 | -43.63491 | 7220 ft | 233 kts | 64° |
| 2026-05-06 20:20 | -22.99660 | -43.61907 | 7072 ft | 230 kts | 64° |
| 2026-05-06 20:20 | -22.98971 | -43.60331 | 6901 ft | 230 kts | 64° |
| 2026-05-06 20:21 | -22.98291 | -43.58777 | 6729 ft | 230 kts | 64° |
| 2026-05-06 20:21 | -22.97588 | -43.57221 | 6630 ft | 229 kts | 63° |
| 2026-05-06 20:21 | -22.96887 | -43.55657 | 6468 ft | 230 kts | 64° |
| 2026-05-06 20:21 | -22.96204 | -43.54083 | 6361 ft | 229 kts | 64° |
| 2026-05-06 20:22 | -22.95520 | -43.52539 | 6198 ft | 230 kts | 64° |
| 2026-05-06 20:22 | -22.94833 | -43.50960 | 5990 ft | 230 kts | 64° |
| 2026-05-06 20:22 | -22.94160 | -43.49384 | 5812 ft | 228 kts | 65° |
| 2026-05-06 20:22 | -22.93509 | -43.47824 | 5615 ft | 225 kts | 65° |
| 2026-05-06 20:23 | -22.92873 | -43.46298 | 5280 ft | 223 kts | 65° |
| 2026-05-06 20:23 | -22.92252 | -43.44776 | 4993 ft | 217 kts | 65° |
| 2026-05-06 20:23 | -22.91637 | -43.43320 | 4790 ft | 208 kts | 64° |
| 2026-05-06 20:23 | -22.91032 | -43.41925 | 4581 ft | 201 kts | 64° |
| 2026-05-06 20:24 | -22.90460 | -43.40568 | 4349 ft | 193 kts | 65° |
| 2026-05-06 20:24 | -22.89925 | -43.39295 | 4174 ft | 177 kts | 65° |
| 2026-05-06 20:24 | -22.89416 | -43.38123 | 3943 ft | 166 kts | 64° |
| 2026-05-06 20:24 | -22.88941 | -43.37028 | 3771 ft | 156 kts | 64° |
| 2026-05-06 20:25 | -22.88514 | -43.36024 | 3683 ft | 138 kts | 64° |
| 2026-05-06 20:25 | -22.88107 | -43.35076 | 3581 ft | 141 kts | 66° |
| 2026-05-06 20:25 | -22.87787 | -43.34046 | 3413 ft | 145 kts | 74° |
| 2026-05-06 20:25 | -22.87560 | -43.32974 | 3201 ft | 145 kts | 76° |
| 2026-05-06 20:26 | -22.87342 | -43.31904 | 2978 ft | 145 kts | 75° |
| 2026-05-06 20:26 | -22.87085 | -43.30872 | 2775 ft | 143 kts | 74° |
| 2026-05-06 20:26 | -22.86817 | -43.29831 | 2589 ft | 143 kts | 73° |
| 2026-05-06 20:26 | -22.86574 | -43.28779 | 2364 ft | 143 kts | 82° |
| 2026-05-06 20:27 | -22.86571 | -43.27709 | 2215 ft | 141 kts | 95° |
| 2026-05-06 20:27 | -22.86670 | -43.26650 | 2139 ft | 142 kts | 95° |
| 2026-05-06 20:27 | -22.86732 | -43.25569 | 2056 ft | 144 kts | 93° |
| 2026-05-06 20:27 | -22.86764 | -43.24478 | 1927 ft | 145 kts | 91° |
| 2026-05-06 20:28 | -22.86774 | -43.23398 | 1779 ft | 145 kts | 90° |
| 2026-05-06 20:28 | -22.86772 | -43.22308 | 1610 ft | 144 kts | 91° |
| 2026-05-06 20:28 | -22.86775 | -43.21209 | 1400 ft | 146 kts | 92° |
| 2026-05-06 20:28 | -22.86780 | -43.20111 | 1183 ft | 145 kts | 94° |
| 2026-05-06 20:29 | -22.86785 | -43.19020 | 1007 ft | 145 kts | 94° |
| 2026-05-06 20:29 | -22.86912 | -43.17947 | 831 ft | 144 kts | 112° |
| 2026-05-06 20:29 | -22.87443 | -43.17049 | 652 ft | 141 kts | 139° |
| 2026-05-06 20:29 | -22.88288 | -43.16529 | 419 ft | 140 kts | 165° |
| 2026-05-06 20:30 | -22.89238 | -43.16417 | 276 ft | 137 kts | 178° |
| 2026-05-06 20:30 | -22.91027 | -43.16282 | 24 ft | 101 kts | 177° |
| 2026-05-06 20:30 | -22.91496 | -43.16256 | 22 ft | 26 kts | 176° |
| 2026-05-06 20:31 | -22.91595 | -43.16272 | 22 ft | 8 kts | 235° |
| 2026-05-06 20:31 | -22.91578 | -43.16325 | 24 ft | 8 kts | 311° |
| 2026-05-06 20:31 | -22.91540 | -43.16367 | 25 ft | 7 kts | 316° |
| 2026-05-06 20:31 | -22.91515 | -43.16392 | 26 ft | 4 kts | 318° |
| 2026-05-06 20:32 | -22.91491 | -43.16416 | 27 ft | 6 kts | 318° |
| 2026-05-06 20:32 | -22.91456 | -43.16449 | 28 ft | 7 kts | 320° |
| 2026-05-06 20:32 | -22.91416 | -43.16486 | 28 ft | 8 kts | 321° |
| 2026-05-06 20:32 | -22.91362 | -43.16503 | 28 ft | 8 kts | 335° |
| 2026-05-06 20:33 | -22.91355 | -43.16558 | 28 ft | 8 kts | 266° |
| 2026-05-06 20:33 | -22.91356 | -43.16571 | 28 ft | 0 kts | 267° |